Time;durP1;ratioP1;P1;durP2;ratioP2;P2;SDS_P1;SDS_P2;PMS_P1;PMS_P2;Temp;Humidity;BMP_temperature;BMP_pressure;BME280_temperature;BME280_humidity;BME280_pressure;Samples;Min_cycle;Max_cycle;Signal;HPM_P1;HPM_P2
2023/09/14 00:02:15;;;;;;;0.10;0.10;;;;;;;;;;5014435;28;20043;-89
2023/09/14 00:04:41;;;;;;;0.10;0.10;;;;;;;;;;5014337;28;20037;-89
2023/09/14 00:07:07;;;;;;;0.10;0.10;;;;;;;;;;5031170;28;20038;-89
2023/09/14 00:09:33;;;;;;;0.10;0.10;;;;;;;;;;5030768;28;20049;-88
2023/09/14 00:11:59;;;;;;;0.10;0.10;;;;;;;;;;5030994;28;20037;-89
2023/09/14 00:14:25;;;;;;;0.10;0.10;;;;;;;;;;4998243;28;20049;-88
2023/09/14 00:16:51;;;;;;;0.10;0.10;;;;;;;;;;5014330;28;20037;-88
2023/09/14 00:19:17;;;;;;;0.10;0.10;;;;;;;;;;5014052;28;20562;-88
2023/09/14 00:21:44;;;;;;;0.10;0.10;;;;;;;;;;5030887;28;20049;-89
2023/09/14 00:24:10;;;;;;;0.10;0.10;;;;;;;;;;5014054;28;20461;-89
2023/09/14 00:26:36;;;;;;;0.10;0.10;;;;;;;;;;5014460;28;20045;-88
2023/09/14 00:29:02;;;;;;;0.10;0.10;;;;;;;;;;5030580;28;20087;-88
2023/09/14 00:31:29;;;;;;;0.10;0.10;;;;;;;;;;5030799;28;20046;-88
2023/09/14 00:33:56;;;;;;;0.10;0.10;;;;;;;;;;4997665;28;20132;-88
2023/09/14 00:36:22;;;;;;;0.10;0.10;;;;;;;;;;5014054;28;20048;-88
2023/09/14 00:38:48;;;;;;;0.10;0.10;;;;;;;;;;5014371;28;20413;-89
2023/09/14 00:41:14;;;;;;;0.10;0.10;;;;;;;;;;5014154;28;20052;-88
2023/09/14 00:43:40;;;;;;;0.10;0.10;;;;;;;;;;5014129;28;20071;-89
2023/09/14 00:46:07;;;;;;;0.10;0.10;;;;;;;;;;5014205;28;20033;-89
2023/09/14 00:48:35;;;;;;;0.10;0.10;;;;;;;;;;5014064;28;20401;-89
2023/09/14 00:51:01;;;;;;;0.10;0.10;;;;;;;;;;5014266;28;20045;-90
2023/09/14 00:53:27;;;;;;;0.10;0.10;;;;;;;;;;5013955;28;20048;-89
2023/09/14 00:55:53;;;;;;;0.10;0.10;;;;;;;;;;5030442;28;20045;-89
2023/09/14 00:58:20;;;;;;;0.10;0.10;;;;;;;;;;5030491;28;20120;-89
2023/09/14 01:00:46;;;;;;;0.10;0.10;;;;;;;;;;4997737;28;20041;-89
2023/09/14 01:03:13;;;;;;;0.10;0.10;;;;;;;;;;5014927;28;20050;-89
2023/09/14 01:05:39;;;;;;;0.10;0.10;;;;;;;;;;5017648;28;20041;-88
2023/09/14 01:08:05;;;;;;;0.10;0.10;;;;;;;;;;5001143;28;20037;-89
2023/09/14 01:10:31;;;;;;;0.10;0.10;;;;;;;;;;5017268;28;20124;-89
2023/09/14 01:12:57;;;;;;;0.10;0.10;;;;;;;;;;5017475;28;20080;-90
2023/09/14 01:15:23;;;;;;;0.10;0.10;;;;;;;;;;5033887;28;20049;-90
2023/09/14 01:17:55;;;;;;;0.10;0.10;;;;;;;;;;5033762;28;20440;-89
2023/09/14 01:20:30;;;;;;;0.10;0.10;;;;;;;;;;5017419;28;20382;-90
2023/09/14 01:23:00;;;;;;;0.10;0.10;;;;;;;;;;5016973;28;20442;-89
2023/09/14 01:25:32;;;;;;;0.10;0.10;;;;;;;;;;5017108;28;20095;-89
2023/09/14 01:28:06;;;;;;;0.10;0.10;;;;;;;;;;5033498;28;20050;-90
2023/09/14 01:30:32;;;;;;;0.10;0.10;;;;;;;;;;5033371;28;20504;-90
2023/09/14 01:32:58;;;;;;;0.00;0.00;;;;;;;;;;5016920;28;20041;-90
2023/09/14 01:35:25;;;;;;;0.10;0.10;;;;;;;;;;5017037;28;20048;-89
2023/09/14 01:37:51;;;;;;;0.10;0.10;;;;;;;;;;5017253;28;20396;-89
2023/09/14 01:40:17;;;;;;;0.10;0.10;;;;;;;;;;5033169;28;20041;-89
2023/09/14 01:42:43;;;;;;;0.10;0.10;;;;;;;;;;5016549;28;20180;-89
2023/09/14 01:45:09;;;;;;;0.10;0.10;;;;;;;;;;5016604;28;20041;-89
2023/09/14 01:47:35;;;;;;;0.10;0.10;;;;;;;;;;5000523;28;20481;-89
2023/09/14 01:50:01;;;;;;;0.10;0.10;;;;;;;;;;5016524;28;20037;-88
2023/09/14 01:52:27;;;;;;;0.10;0.10;;;;;;;;;;5032902;28;20045;-89
2023/09/14 01:54:53;;;;;;;0.10;0.10;;;;;;;;;;5000197;28;20514;-89
2023/09/14 01:57:19;;;;;;;0.10;0.10;;;;;;;;;;5033263;28;20125;-89
2023/09/14 01:59:45;;;;;;;0.10;0.10;;;;;;;;;;5016714;28;20041;-89
2023/09/14 02:02:11;;;;;;;0.10;0.10;;;;;;;;;;5033025;28;20037;-89
2023/09/14 02:04:38;;;;;;;0.10;0.10;;;;;;;;;;5032602;28;20080;-88
2023/09/14 02:07:04;;;;;;;0.10;0.10;;;;;;;;;;5016434;28;20492;-88
2023/09/14 02:09:30;;;;;;;0.15;0.15;;;;;;;;;;5016201;28;20077;-88
2023/09/14 02:11:56;;;;;;;0.10;0.10;;;;;;;;;;5032654;28;20432;-88
2023/09/14 02:14:23;;;;;;;0.10;0.10;;;;;;;;;;5015968;28;20393;-88
2023/09/14 02:16:49;;;;;;;0.10;0.10;;;;;;;;;;5000201;28;20055;-88
2023/09/14 02:19:15;;;;;;;0.10;0.10;;;;;;;;;;5033629;28;20084;-88
2023/09/14 02:21:41;;;;;;;0.10;0.10;;;;;;;;;;5015999;28;20041;-88
2023/09/14 02:24:07;;;;;;;0.10;0.10;;;;;;;;;;5015723;28;20046;-88
2023/09/14 02:26:33;;;;;;;0.10;0.10;;;;;;;;;;5016007;28;20060;-88
2023/09/14 02:28:59;;;;;;;0.10;0.10;;;;;;;;;;5032323;28;20033;-88
2023/09/14 02:31:25;;;;;;;0.10;0.10;;;;;;;;;;5015964;28;20033;-88
2023/09/14 02:33:51;;;;;;;0.10;0.10;;;;;;;;;;5015660;28;20069;-88
2023/09/14 02:36:17;;;;;;;0.10;0.10;;;;;;;;;;5015893;28;20138;-88
2023/09/14 02:38:44;;;;;;;0.10;0.10;;;;;;;;;;5015866;28;20057;-88
2023/09/14 02:41:10;;;;;;;0.10;0.10;;;;;;;;;;5032075;28;20067;-89
2023/09/14 02:43:36;;;;;;;0.10;0.10;;;;;;;;;;4999234;28;20042;-88
2023/09/14 02:46:02;;;;;;;0.20;0.20;;;;;;;;;;5032176;28;20037;-89
2023/09/14 02:48:28;;;;;;;0.10;0.10;;;;;;;;;;5015666;28;20099;-89
2023/09/14 02:50:54;;;;;;;0.10;0.10;;;;;;;;;;5015448;28;20408;-88
2023/09/14 02:53:20;;;;;;;0.10;0.10;;;;;;;;;;5031833;28;20080;-88
2023/09/14 02:55:46;;;;;;;0.10;0.10;;;;;;;;;;5031649;28;20041;-89
2023/09/14 02:58:12;;;;;;;0.10;0.10;;;;;;;;;;5031653;28;20041;-88
2023/09/14 03:00:39;;;;;;;0.10;0.10;;;;;;;;;;4998928;28;20425;-88
2023/09/14 03:03:05;;;;;;;0.10;0.10;;;;;;;;;;5031645;28;20045;-89
2023/09/14 03:05:31;;;;;;;0.10;0.10;;;;;;;;;;5031532;28;20076;-89
2023/09/14 03:07:57;;;;;;;0.10;0.10;;;;;;;;;;5031632;28;20034;-89
2023/09/14 03:10:23;;;;;;;0.10;0.10;;;;;;;;;;5015509;28;20083;-89
2023/09/14 03:12:49;;;;;;;0.10;0.10;;;;;;;;;;5031575;28;20081;-88
2023/09/14 03:15:15;;;;;;;0.10;0.10;;;;;;;;;;5014976;28;20098;-89
2023/09/14 03:17:41;;;;;;;0.10;0.10;;;;;;;;;;5031429;28;20132;-89
2023/09/14 03:20:07;;;;;;;0.10;0.10;;;;;;;;;;5031119;28;20381;-89
2023/09/14 03:22:34;;;;;;;0.15;0.15;;;;;;;;;;5031165;28;20038;-89
2023/09/14 03:25:00;;;;;;;0.10;0.10;;;;;;;;;;5031725;28;20314;-90
2023/09/14 03:27:26;;;;;;;0.10;0.10;;;;;;;;;;5014787;28;20124;-90
2023/09/14 03:29:52;;;;;;;0.10;0.10;;;;;;;;;;5031429;28;20037;-90
2023/09/14 03:32:18;;;;;;;0.10;0.10;;;;;;;;;;5014980;28;20453;-90
2023/09/14 03:34:44;;;;;;;0.10;0.10;;;;;;;;;;5031619;28;20280;-90
2023/09/14 03:37:10;;;;;;;0.10;0.10;;;;;;;;;;5014928;28;20047;-89
2023/09/14 03:39:36;;;;;;;0.10;0.10;;;;;;;;;;5015057;28;20042;-90
2023/09/14 03:42:02;;;;;;;0.10;0.10;;;;;;;;;;5031432;28;20052;-90
2023/09/14 03:44:28;;;;;;;0.10;0.10;;;;;;;;;;5015122;28;20064;-90
2023/09/14 03:46:54;;;;;;;0.10;0.10;;;;;;;;;;5015351;28;20042;-90
2023/09/14 03:49:20;;;;;;;0.10;0.10;;;;;;;;;;5014923;28;20527;-90
2023/09/14 03:51:46;;;;;;;0.10;0.10;;;;;;;;;;4998441;28;20080;-90
2023/09/14 03:54:13;;;;;;;0.10;0.10;;;;;;;;;;5031089;28;20041;-90
2023/09/14 03:56:39;;;;;;;0.10;0.10;;;;;;;;;;5014714;28;20048;-90
2023/09/14 03:59:05;;;;;;;0.03;0.03;;;;;;;;;;4998732;28;20053;-90
2023/09/14 04:01:31;;;;;;;0.10;0.10;;;;;;;;;;5014684;28;20042;-89
2023/09/14 04:03:57;;;;;;;0.10;0.10;;;;;;;;;;5014498;28;20076;-90
2023/09/14 04:06:23;;;;;;;0.10;0.10;;;;;;;;;;4998364;28;20044;-90
2023/09/14 04:08:49;;;;;;;0.10;0.10;;;;;;;;;;5014772;28;20434;-90
2023/09/14 04:11:15;;;;;;;0.10;0.10;;;;;;;;;;5014701;28;20176;-89
2023/09/14 04:13:41;;;;;;;0.10;0.10;;;;;;;;;;5014340;28;20041;-89
2023/09/14 04:16:07;;;;;;;0.10;0.10;;;;;;;;;;5030774;28;20507;-90
2023/09/14 04:18:37;;;;;;;0.10;0.10;;;;;;;;;;5014511;28;20445;-89
2023/09/14 04:21:03;;;;;;;0.10;0.10;;;;;;;;;;5014317;28;20049;-89
2023/09/14 04:23:29;;;;;;;0.10;0.10;;;;;;;;;;4997841;28;20041;-89
2023/09/14 04:25:55;;;;;;;0.10;0.10;;;;;;;;;;5030876;28;20041;-88
2023/09/14 04:28:21;;;;;;;0.10;0.10;;;;;;;;;;5014274;28;20531;-89
2023/09/14 04:30:48;;;;;;;0.10;0.10;;;;;;;;;;5014350;28;20120;-89
2023/09/14 04:33:15;;;;;;;0.10;0.10;;;;;;;;;;4997961;28;20050;-89
2023/09/14 04:35:41;;;;;;;0.10;0.10;;;;;;;;;;5030632;28;20048;-88
2023/09/14 04:38:07;;;;;;;0.10;0.10;;;;;;;;;;5031614;28;20068;-88
2023/09/14 04:40:43;;;;;;;0.10;0.10;;;;;;;;;;5034629;28;20129;-88
2023/09/14 04:43:09;;;;;;;0.10;0.10;;;;;;;;;;5034196;28;20431;-88
2023/09/14 04:45:35;;;;;;;0.10;0.10;;;;;;;;;;5017932;28;20037;-88
2023/09/14 04:48:01;;;;;;;0.10;0.10;;;;;;;;;;5017652;28;20120;-88
2023/09/14 04:50:27;;;;;;;0.10;0.10;;;;;;;;;;5017728;28;20044;-88
2023/09/14 04:52:53;;;;;;;0.10;0.10;;;;;;;;;;5017636;28;20128;-88
2023/09/14 04:55:19;;;;;;;0.10;0.10;;;;;;;;;;5017615;28;20120;-86
2023/09/14 04:57:45;;;;;;;0.10;0.10;;;;;;;;;;5017561;28;20049;-87
2023/09/14 05:00:12;;;;;;;0.10;0.10;;;;;;;;;;5034119;28;20147;-87
2023/09/14 05:02:38;;;;;;;0.10;0.10;;;;;;;;;;5017550;28;20102;-90
2023/09/14 05:05:06;;;;;;;0.10;0.10;;;;;;;;;;5001217;28;20279;-89
2023/09/14 05:07:32;;;;;;;0.10;0.10;;;;;;;;;;5033827;28;20595;-89
2023/09/14 05:09:58;;;;;;;0.10;0.10;;;;;;;;;;5017370;28;20401;-89
2023/09/14 05:12:24;;;;;;;0.10;0.10;;;;;;;;;;5033809;28;20045;-90
2023/09/14 05:14:50;;;;;;;0.10;0.10;;;;;;;;;;5033674;28;20044;-88
2023/09/14 05:17:16;;;;;;;0.10;0.10;;;;;;;;;;5033525;28;20049;-88
2023/09/14 05:19:42;;;;;;;0.10;0.10;;;;;;;;;;5017165;28;20053;-89
2023/09/14 05:22:09;;;;;;;0.10;0.10;;;;;;;;;;5017361;28;20052;-89
2023/09/14 05:24:35;;;;;;;0.10;0.10;;;;;;;;;;5016969;28;20049;-88
2023/09/14 05:27:01;;;;;;;0.10;0.10;;;;;;;;;;5017023;28;20069;-88
2023/09/14 05:29:27;;;;;;;0.10;0.10;;;;;;;;;;5017041;28;20068;-89
2023/09/14 05:31:53;;;;;;;0.10;0.10;;;;;;;;;;5033347;28;20420;-89
2023/09/14 05:34:19;;;;;;;0.10;0.10;;;;;;;;;;5016908;28;20128;-89
2023/09/14 05:36:45;;;;;;;0.10;0.10;;;;;;;;;;5017007;28;20045;-89
2023/09/14 05:39:12;;;;;;;0.10;0.10;;;;;;;;;;5033598;28;20083;-90
2023/09/14 05:41:40;;;;;;;0.10;0.10;;;;;;;;;;5033366;28;20046;-90
2023/09/14 05:44:09;;;;;;;0.10;0.10;;;;;;;;;;5000884;28;20045;-89
2023/09/14 05:46:35;;;;;;;0.10;0.10;;;;;;;;;;5016980;28;20080;-90
2023/09/14 05:49:01;;;;;;;0.17;0.17;;;;;;;;;;5032751;28;20037;-89
2023/09/14 05:51:28;;;;;;;0.10;0.10;;;;;;;;;;5016646;28;20060;-89
2023/09/14 05:53:54;;;;;;;0.10;0.10;;;;;;;;;;5000385;28;20038;-89
2023/09/14 05:56:20;;;;;;;0.10;0.10;;;;;;;;;;5016579;28;20049;-89
2023/09/14 05:58:47;;;;;;;0.10;0.10;;;;;;;;;;5000078;28;20042;-88
2023/09/14 06:01:14;;;;;;;0.10;0.10;;;;;;;;;;5000085;28;20041;-89
2023/09/14 06:03:40;;;;;;;0.10;0.10;;;;;;;;;;5000138;28;20041;-89
2023/09/14 06:06:06;;;;;;;0.10;0.10;;;;;;;;;;5016696;28;20041;-88
2023/09/14 06:08:32;;;;;;;0.10;0.10;;;;;;;;;;5032838;28;20044;-89
2023/09/14 06:10:58;;;;;;;0.10;0.10;;;;;;;;;;5016247;28;20477;-90
2023/09/14 06:13:24;;;;;;;0.20;0.20;;;;;;;;;;5031102;28;20174;-90
2023/09/14 06:15:50;;;;;;;0.10;0.10;;;;;;;;;;4999728;28;20041;-90
2023/09/14 06:18:16;;;;;;;0.10;0.10;;;;;;;;;;5015967;28;20033;-91
2023/09/14 06:20:42;;;;;;;0.10;0.10;;;;;;;;;;5033435;28;20057;-88
2023/09/14 06:23:08;;;;;;;0.10;0.10;;;;;;;;;;5016994;28;20053;-90
2023/09/14 06:25:34;;;;;;;0.10;0.10;;;;;;;;;;5016063;28;20128;-92
2023/09/14 06:28:00;;;;;;;0.10;0.10;;;;;;;;;;4999797;28;20044;-88
2023/09/14 06:30:26;;;;;;;0.10;0.10;;;;;;;;;;4999576;28;20476;-88
2023/09/14 06:32:52;;;;;;;0.10;0.10;;;;;;;;;;5016423;28;20041;-93
2023/09/14 06:35:18;;;;;;;0.10;0.10;;;;;;;;;;4999748;28;20547;-92
2023/09/14 06:37:44;;;;;;;0.10;0.10;;;;;;;;;;5016136;28;20045;-93
2023/09/14 06:40:10;;;;;;;0.10;0.10;;;;;;;;;;5000439;28;20049;-92
2023/09/14 06:42:36;;;;;;;0.10;0.10;;;;;;;;;;5015571;28;20049;-88
2023/09/14 06:45:03;;;;;;;0.10;0.10;;;;;;;;;;5015558;28;20412;-89
2023/09/14 06:47:29;;;;;;;0.10;0.10;;;;;;;;;;5032050;28;20519;-89
2023/09/14 06:49:55;;;;;;;0.10;0.10;;;;;;;;;;5015543;28;20041;-89
2023/09/14 06:52:21;;;;;;;0.10;0.10;;;;;;;;;;5015430;28;20073;-89
2023/09/14 06:54:46;;;;;;;0.10;0.10;;;;;;;;;;5015277;28;20095;-90
2023/09/14 06:57:13;;;;;;;0.10;0.10;;;;;;;;;;5015468;28;20124;-90
2023/09/14 06:59:39;;;;;;;0.13;0.13;;;;;;;;;;5012131;28;20044;-89
2023/09/14 07:02:04;;;;;;;0.10;0.10;;;;;;;;;;5021549;28;20127;-89
2023/09/14 07:04:30;;;;;;;0.13;0.13;;;;;;;;;;5015209;28;20048;-90
2023/09/14 07:06:57;;;;;;;0.10;0.10;;;;;;;;;;5015448;28;20064;-89
2023/09/14 07:09:23;;;;;;;0.10;0.10;;;;;;;;;;5015255;28;20120;-90
2023/09/14 07:11:49;;;;;;;0.10;0.10;;;;;;;;;;5015088;28;20108;-90
2023/09/14 07:14:15;;;;;;;0.10;0.10;;;;;;;;;;5015055;28;20041;-90
2023/09/14 07:16:42;;;;;;;0.10;0.10;;;;;;;;;;5015397;28;20099;-90
2023/09/14 07:19:08;;;;;;;0.10;0.10;;;;;;;;;;5031787;28;20076;-90
2023/09/14 07:21:37;;;;;;;0.10;0.10;;;;;;;;;;5015448;28;20104;-90
2023/09/14 07:24:06;;;;;;;0.10;0.10;;;;;;;;;;5015461;28;20037;-90
2023/09/14 07:26:33;;;;;;;0.10;0.10;;;;;;;;;;5015268;28;20037;-90
2023/09/14 07:28:59;;;;;;;0.10;0.10;;;;;;;;;;5031774;28;20033;-90
2023/09/14 07:31:25;;;;;;;0.10;0.10;;;;;;;;;;5031356;28;20432;-90
2023/09/14 07:33:52;;;;;;;0.10;0.10;;;;;;;;;;5031507;28;20106;-90
2023/09/14 07:36:18;;;;;;;0.10;0.10;;;;;;;;;;5015164;28;20045;-90
2023/09/14 07:38:44;;;;;;;0.10;0.10;;;;;;;;;;5014985;28;20087;-90
2023/09/14 07:41:12;;;;;;;0.20;0.20;;;;;;;;;;5014863;28;20072;-90
2023/09/14 07:43:38;;;;;;;0.20;0.20;;;;;;;;;;5014798;28;20045;-90
2023/09/14 07:46:04;;;;;;;0.10;0.10;;;;;;;;;;4998741;28;20041;-90
2023/09/14 07:48:31;;;;;;;0.38;0.38;;;;;;;;;;5014750;28;20045;-90
2023/09/14 07:50:56;;;;;;;0.13;0.13;;;;;;;;;;4998338;28;20044;-90
2023/09/14 07:53:22;;;;;;;0.10;0.10;;;;;;;;;;4998365;28;20500;-90
2023/09/14 07:55:52;;;;;;;0.10;0.10;;;;;;;;;;5015290;28;20522;-93
2023/09/14 07:58:19;;;;;;;0.10;0.10;;;;;;;;;;5015767;28;20049;-90
2023/09/14 08:00:46;;;;;;;0.20;0.20;;;;;;;;;;4999248;28;20128;-91
2023/09/14 08:03:13;;;;;;;0.10;0.10;;;;;;;;;;4999023;28;20048;-92
2023/09/14 08:05:40;;;;;;;0.10;0.10;;;;;;;;;;5015003;28;20048;-93
2023/09/14 08:08:08;;;;;;;0.20;0.20;;;;;;;;;;4998597;28;20044;-93
2023/09/14 08:10:34;;;;;;;0.20;0.20;;;;;;;;;;5014949;28;20045;-93
2023/09/14 08:13:00;;;;;;;0.20;0.20;;;;;;;;;;5021151;28;20045;-93
2023/09/14 08:15:27;;;;;;;0.20;0.20;;;;;;;;;;5020371;28;20037;-94
2023/09/14 08:17:56;;;;;;;0.20;0.20;;;;;;;;;;5019337;28;20041;-94
2023/09/14 08:20:22;;;;;;;0.20;0.20;;;;;;;;;;5019405;28;20102;-94
2023/09/14 08:22:48;;;;;;;0.28;0.28;;;;;;;;;;5019105;28;20139;-94
2023/09/14 08:25:15;;;;;;;0.10;0.10;;;;;;;;;;5018997;28;20124;-94
2023/09/14 08:27:43;;;;;;;0.10;0.10;;;;;;;;;;5019249;28;20064;-95
2023/09/14 08:30:10;;;;;;;0.10;0.10;;;;;;;;;;5019251;28;20144;-94
2023/09/14 08:32:36;;;;;;;0.10;0.10;;;;;;;;;;5019177;28;20037;-94
2023/09/14 08:35:19;;;;;;;0.10;0.10;;;;;;;;;;5018273;28;20099;-95
2023/09/14 08:37:45;;;;;;;0.20;0.20;;;;;;;;;;5035383;28;20556;-94
2023/09/14 08:40:14;;;;;;;0.20;0.20;;;;;;;;;;5018563;28;20041;-93
2023/09/14 08:42:40;;;;;;;0.20;0.20;;;;;;;;;;5035499;28;20037;-94
2023/09/14 08:45:10;;;;;;;0.20;0.20;;;;;;;;;;5018662;28;20088;-94
2023/09/14 08:47:36;;;;;;;0.20;0.20;;;;;;;;;;5018989;28;20063;-94
2023/09/14 08:50:03;;;;;;;0.20;0.20;;;;;;;;;;5018595;28;20432;-94
2023/09/14 08:52:29;;;;;;;0.10;0.10;;;;;;;;;;5018631;28;20535;-94
2023/09/14 08:54:55;;;;;;;0.20;0.20;;;;;;;;;;5018638;28;20041;-94
2023/09/14 08:57:21;;;;;;;0.20;0.20;;;;;;;;;;5018531;28;20057;-94
2023/09/14 08:59:47;;;;;;;0.20;0.20;;;;;;;;;;5019070;28;20083;-94
2023/09/14 09:02:13;;;;;;;0.20;0.20;;;;;;;;;;5018497;28;20045;-91
2023/09/14 09:04:39;;;;;;;0.20;0.20;;;;;;;;;;5018329;28;20041;-91
2023/09/14 09:07:06;;;;;;;0.20;0.20;;;;;;;;;;5018875;28;20499;-91
2023/09/14 09:09:32;;;;;;;0.20;0.20;;;;;;;;;;5018996;28;20033;-92
2023/09/14 09:11:58;;;;;;;0.20;0.20;;;;;;;;;;5035818;28;20512;-91
2023/09/14 09:14:28;;;;;;;0.20;0.20;;;;;;;;;;5019268;28;20056;-92
2023/09/14 09:16:54;;;;;;;0.20;0.20;;;;;;;;;;5019265;28;20056;-92
2023/09/14 09:19:20;;;;;;;0.20;0.20;;;;;;;;;;5019090;28;20057;-92
2023/09/14 09:21:46;;;;;;;0.20;0.20;;;;;;;;;;5018419;28;20507;-91
2023/09/14 09:24:15;;;;;;;0.20;0.20;;;;;;;;;;5018017;28;20065;-90
2023/09/14 09:26:41;;;;;;;0.20;0.20;;;;;;;;;;5019236;28;20455;-91
2023/09/14 09:29:17;;;;;;;0.20;0.20;;;;;;;;;;5018881;28;20049;-90
2023/09/14 09:31:44;;;;;;;0.20;0.20;;;;;;;;;;5019342;28;20480;-91
2023/09/14 09:34:11;;;;;;;0.20;0.20;;;;;;;;;;5035852;28;20061;-90
2023/09/14 09:36:40;;;;;;;0.20;0.20;;;;;;;;;;5018647;28;20542;-91
2023/09/14 09:39:06;;;;;;;0.20;0.20;;;;;;;;;;5017531;28;20041;-90
2023/09/14 09:41:33;;;;;;;0.20;0.20;;;;;;;;;;5017302;28;20041;-90
2023/09/14 09:43:59;;;;;;;0.25;0.25;;;;;;;;;;5017124;28;20048;-91
2023/09/14 09:46:25;;;;;;;0.20;0.20;;;;;;;;;;5017431;28;20037;-90
2023/09/14 09:48:51;;;;;;;0.20;0.20;;;;;;;;;;5017750;28;20060;-90
2023/09/14 09:51:20;;;;;;;0.20;0.20;;;;;;;;;;5017142;28;20033;-90
2023/09/14 09:54:04;;;;;;;0.20;0.20;;;;;;;;;;5017166;28;20076;-90
2023/09/14 09:56:30;;;;;;;0.20;0.20;;;;;;;;;;5017071;28;20374;-92
2023/09/14 09:58:56;;;;;;;0.20;0.20;;;;;;;;;;5016736;28;20175;-89
2023/09/14 10:01:22;;;;;;;0.20;0.20;;;;;;;;;;5017278;28;20045;-90
2023/09/14 10:03:48;;;;;;;0.20;0.20;;;;;;;;;;5017239;28;20081;-90
2023/09/14 10:06:14;;;;;;;0.20;0.20;;;;;;;;;;5016776;28;20451;-90
2023/09/14 10:08:40;;;;;;;0.20;0.20;;;;;;;;;;5016729;28;20033;-89
2023/09/14 10:11:06;;;;;;;0.20;0.20;;;;;;;;;;5016538;28;20041;-90
2023/09/14 10:13:32;;;;;;;0.20;0.20;;;;;;;;;;5016198;28;20034;-90
2023/09/14 10:15:58;;;;;;;0.20;0.20;;;;;;;;;;5017070;28;20048;-90
2023/09/14 10:18:25;;;;;;;0.20;0.20;;;;;;;;;;5016614;28;20041;-90
2023/09/14 10:20:51;;;;;;;0.20;0.20;;;;;;;;;;5016033;28;20057;-90
2023/09/14 10:23:18;;;;;;;0.30;0.30;;;;;;;;;;5016089;28;20054;-90
2023/09/14 10:25:46;;;;;;;0.20;0.20;;;;;;;;;;5015859;28;20053;-90
2023/09/14 10:28:12;;;;;;;0.20;0.20;;;;;;;;;;5016071;28;20081;-90
2023/09/14 10:30:39;;;;;;;0.20;0.20;;;;;;;;;;5015888;28;20536;-90
2023/09/14 10:33:05;;;;;;;0.20;0.20;;;;;;;;;;5016270;28;20041;-89
2023/09/14 10:35:31;;;;;;;0.20;0.20;;;;;;;;;;5015312;28;20046;-89
2023/09/14 10:37:57;;;;;;;0.10;0.10;;;;;;;;;;5016085;28;20042;-89
2023/09/14 10:40:23;;;;;;;0.10;0.10;;;;;;;;;;5016452;28;20039;-90
2023/09/14 10:42:49;;;;;;;0.15;0.15;;;;;;;;;;5016045;28;20127;-90
2023/09/14 10:45:16;;;;;;;0.10;0.10;;;;;;;;;;5015910;28;20049;-90
2023/09/14 10:47:43;;;;;;;0.20;0.20;;;;;;;;;;5032909;28;20065;-90
2023/09/14 10:50:09;;;;;;;0.15;0.15;;;;;;;;;;5016165;28;20048;-90
2023/09/14 10:52:37;;;;;;;0.10;0.10;;;;;;;;;;5015904;28;20053;-90
2023/09/14 10:55:06;;;;;;;0.10;0.10;;;;;;;;;;5015861;28;20045;-90
2023/09/14 10:57:32;;;;;;;0.10;0.10;;;;;;;;;;5015708;28;20045;-89
2023/09/14 10:59:58;;;;;;;0.10;0.10;;;;;;;;;;5015754;28;20128;-89
2023/09/14 11:02:41;;;;;;;0.10;0.10;;;;;;;;;;5015971;28;20057;-90
2023/09/14 11:05:10;;;;;;;0.20;0.20;;;;;;;;;;5031689;28;20511;-89
2023/09/14 11:07:39;;;;;;;0.10;0.10;;;;;;;;;;5031821;28;20037;-90
2023/09/14 11:10:07;;;;;;;0.30;0.30;;;;;;;;;;5015578;28;20033;-89
2023/09/14 11:12:33;;;;;;;0.20;0.20;;;;;;;;;;5015410;28;20037;-89
2023/09/14 11:15:12;;;;;;;0.20;0.20;;;;;;;;;;5015725;28;20045;-90
2023/09/14 11:17:42;;;;;;;0.10;0.10;;;;;;;;;;5015803;28;20045;-89
2023/09/14 11:20:28;;;;;;;0.10;0.10;;;;;;;;;;5015041;28;20175;-89
2023/09/14 11:22:59;;;;;;;0.10;0.10;;;;;;;;;;5031339;28;20050;-87
2023/09/14 11:25:33;;;;;;;0.10;0.10;;;;;;;;;;5015156;28;20125;-87
2023/09/14 11:27:59;;;;;;;0.10;0.10;;;;;;;;;;5015337;28;20431;-86
2023/09/14 11:30:26;;;;;;;0.10;0.10;;;;;;;;;;5031613;28;20108;-87
2023/09/14 11:32:52;;;;;;;0.10;0.10;;;;;;;;;;5031224;28;20468;-88
2023/09/14 11:35:18;;;;;;;0.10;0.10;;;;;;;;;;5015214;28;20132;-88
2023/09/14 11:37:44;;;;;;;0.20;0.20;;;;;;;;;;5015843;28;20496;-89
2023/09/14 11:40:15;;;;;;;0.10;0.10;;;;;;;;;;5014781;28;20098;-88
2023/09/14 11:43:00;;;;;;;0.10;0.10;;;;;;;;;;5030791;28;20042;-88
2023/09/14 11:45:26;;;;;;;0.20;0.20;;;;;;;;;;5031325;28;20124;-89
2023/09/14 11:47:52;;;;;;;0.10;0.10;;;;;;;;;;5030820;28;20038;-88
2023/09/14 11:50:20;;;;;;;0.20;0.20;;;;;;;;;;5031382;28;20053;-89
2023/09/14 11:52:45;;;;;;;0.10;0.10;;;;;;;;;;5014937;28;20086;-89
2023/09/14 11:55:15;;;;;;;0.15;0.15;;;;;;;;;;5014698;28;20495;-89
2023/09/14 11:57:41;;;;;;;0.10;0.10;;;;;;;;;;5015120;28;20496;-90
2023/09/14 12:00:08;;;;;;;0.10;0.10;;;;;;;;;;5014842;28;20405;-89
2023/09/14 12:02:33;;;;;;;0.10;0.10;;;;;;;;;;5014550;28;20132;-89
2023/09/14 12:04:59;;;;;;;0.20;0.20;;;;;;;;;;5014499;28;20432;-89
2023/09/14 12:07:27;;;;;;;0.10;0.10;;;;;;;;;;5014571;28;20037;-88
2023/09/14 12:09:54;;;;;;;0.10;0.10;;;;;;;;;;5022268;28;20049;-88
2023/09/14 12:12:27;;;;;;;0.17;0.17;;;;;;;;;;4994634;28;20046;-88
2023/09/14 12:14:53;;;;;;;0.30;0.30;;;;;;;;;;4994476;28;20489;-88
2023/09/14 12:17:23;;;;;;;0.10;0.10;;;;;;;;;;4978810;28;20477;-89
2023/09/14 12:19:49;;;;;;;0.20;0.20;;;;;;;;;;4994540;28;20054;-87
2023/09/14 12:22:15;;;;;;;0.10;0.10;;;;;;;;;;4994802;28;20065;-86
2023/09/14 12:24:42;;;;;;;0.10;0.10;;;;;;;;;;4994700;28;20046;-87
2023/09/14 12:27:08;;;;;;;0.10;0.10;;;;;;;;;;4994589;28;20080;-87
2023/09/14 12:29:34;;;;;;;0.10;0.10;;;;;;;;;;4994544;28;20052;-88
2023/09/14 12:32:01;;;;;;;0.10;0.10;;;;;;;;;;4994739;28;20030;-88
2023/09/14 12:34:26;;;;;;;0.10;0.10;;;;;;;;;;5011457;28;20038;-88
2023/09/14 12:36:52;;;;;;;0.10;0.10;;;;;;;;;;4994538;28;20045;-88
2023/09/14 12:39:18;;;;;;;0.20;0.20;;;;;;;;;;4994500;28;20123;-87
2023/09/14 12:41:50;;;;;;;0.10;0.10;;;;;;;;;;4994516;28;20053;-87
2023/09/14 12:44:18;;;;;;;;;;;;;;;;;;4995532;28;20045;-88
2023/09/14 12:46:44;;;;;;;0.10;0.10;;;;;;;;;;4994306;28;19921;-88
2023/09/14 12:49:15;;;;;;;0.17;0.17;;;;;;;;;;4994446;28;20073;-88
2023/09/14 12:51:48;;;;;;;0.20;0.20;;;;;;;;;;4995175;28;20438;-87
2023/09/14 12:54:16;;;;;;;0.10;0.10;;;;;;;;;;4994392;28;20088;-87
2023/09/14 12:56:42;;;;;;;0.10;0.10;;;;;;;;;;4978469;28;20045;-88
2023/09/14 12:59:10;;;;;;;0.10;0.10;;;;;;;;;;4995372;28;20042;-88
2023/09/14 13:01:39;;;;;;;0.20;0.20;;;;;;;;;;4997860;28;20068;-89
2023/09/14 13:04:05;;;;;;;0.10;0.10;;;;;;;;;;4981769;28;20176;-89
2023/09/14 13:06:34;;;;;;;0.10;0.10;;;;;;;;;;4981971;28;20038;-89
2023/09/14 13:09:07;;;;;;;0.20;0.20;;;;;;;;;;4998099;28;20038;-89
2023/09/14 13:11:34;;;;;;;0.15;0.15;;;;;;;;;;5000076;28;20073;-89
2023/09/14 13:14:00;;;;;;;0.20;0.20;;;;;;;;;;4998363;28;20404;-90
2023/09/14 13:16:27;;;;;;;0.10;0.10;;;;;;;;;;4981511;28;20501;-88
2023/09/14 13:18:54;;;;;;;0.10;0.10;;;;;;;;;;4997677;28;20319;-90
2023/09/14 13:21:20;;;;;;;0.10;0.10;;;;;;;;;;4998116;28;20402;-90
2023/09/14 13:23:46;;;;;;;0.10;0.10;;;;;;;;;;4998310;28;20038;-90
2023/09/14 13:26:12;;;;;;;0.10;0.10;;;;;;;;;;4981927;28;20041;-90
2023/09/14 13:28:38;;;;;;;0.20;0.20;;;;;;;;;;4998350;28;20428;-92
2023/09/14 13:31:04;;;;;;;0.10;0.10;;;;;;;;;;4998158;28;20073;-91
2023/09/14 13:33:31;;;;;;;0.10;0.10;;;;;;;;;;4982554;28;20493;-91
2023/09/14 13:36:00;;;;;;;0.10;0.10;;;;;;;;;;5014645;28;20053;-93
2023/09/14 13:38:27;;;;;;;0.17;0.17;;;;;;;;;;4998798;28;20267;-93
2023/09/14 13:40:53;;;;;;;0.25;0.25;;;;;;;;;;4982321;28;20046;-91
2023/09/14 13:43:20;;;;;;;0.10;0.10;;;;;;;;;;4998297;28;20053;-95
2023/09/14 13:45:46;;;;;;;0.10;0.10;;;;;;;;;;4998740;28;20037;-94
2023/09/14 13:48:13;;;;;;;0.43;0.35;;;;;;;;;;4998920;28;20544;-93
2023/09/14 13:50:39;;;;;;;0.20;0.20;;;;;;;;;;4998091;28;20041;-91
2023/09/14 13:53:08;;;;;;;0.20;0.20;;;;;;;;;;4981480;28;20545;-91
2023/09/14 13:55:34;;;;;;;0.20;0.20;;;;;;;;;;4981515;28;20049;-90
2023/09/14 13:58:00;;;;;;;0.20;0.20;;;;;;;;;;5013746;28;20378;-93
2023/09/14 14:00:25;;;;;;;0.20;0.20;;;;;;;;;;4997268;28;20045;-91
2023/09/14 14:02:55;;;;;;;0.10;0.10;;;;;;;;;;4996889;28;20045;-90
2023/09/14 14:05:21;;;;;;;0.20;0.20;;;;;;;;;;4980781;28;20045;-88
2023/09/14 14:07:47;;;;;;;0.10;0.10;;;;;;;;;;4997005;28;20080;-88
2023/09/14 14:10:13;;;;;;;0.10;0.10;;;;;;;;;;4980240;28;20049;-87
2023/09/14 14:12:39;;;;;;;0.10;0.10;;;;;;;;;;4996421;28;20465;-88
2023/09/14 14:15:05;;;;;;;0.20;0.20;;;;;;;;;;4996846;28;20083;-88
2023/09/14 14:17:31;;;;;;;0.10;0.10;;;;;;;;;;4996994;28;20045;-88
2023/09/14 14:19:57;;;;;;;0.10;0.10;;;;;;;;;;4996737;28;20054;-93
2023/09/14 14:22:24;;;;;;;0.20;0.20;;;;;;;;;;4996777;28;20050;-90
2023/09/14 14:24:51;;;;;;;0.10;0.10;;;;;;;;;;5012497;28;20497;-90
2023/09/14 14:27:18;;;;;;;0.10;0.10;;;;;;;;;;4998612;28;20037;-90
2023/09/14 14:29:44;;;;;;;0.10;0.10;;;;;;;;;;5016239;28;20508;-90
2023/09/14 14:32:10;;;;;;;0.10;0.10;;;;;;;;;;5016186;28;20041;-91
2023/09/14 14:34:36;;;;;;;0.10;0.10;;;;;;;;;;5016109;28;20163;-91
2023/09/14 14:37:02;;;;;;;0.10;0.10;;;;;;;;;;5016069;28;20048;-90
2023/09/14 14:39:29;;;;;;;0.20;0.20;;;;;;;;;;5016472;28;20079;-90
2023/09/14 14:41:55;;;;;;;0.20;0.20;;;;;;;;;;4999499;28;20084;-91